sensor_id;sensor_type;location;lat;lon;timestamp;pressure;altitude;pressure_sealevel;temperature;humidity
63773;BME280;49919;53.612;55.898;2022-08-25T00:01:32;100723.47;;;20.67;52.76
63773;BME280;49919;53.612;55.898;2022-08-25T00:03:03;100714.56;;;20.66;52.93
63773;BME280;49919;53.612;55.898;2022-08-25T00:04:34;100717.53;;;20.65;52.84
63773;BME280;49919;53.612;55.898;2022-08-25T00:06:06;100711.84;;;20.61;52.96
63773;BME280;49919;53.612;55.898;2022-08-25T00:07:37;100716.97;;;20.58;53.15
63773;BME280;49919;53.612;55.898;2022-08-25T00:09:10;100716.47;;;20.56;53.24
63773;BME280;49919;53.612;55.898;2022-08-25T00:10:41;100723.75;;;20.55;53.35
63773;BME280;49919;53.612;55.898;2022-08-25T00:12:12;100721.31;;;20.53;53.33
63773;BME280;49919;53.612;55.898;2022-08-25T00:13:47;100726.47;;;20.55;53.46
63773;BME280;49919;53.612;55.898;2022-08-25T00:15:18;100719.44;;;20.54;53.26
63773;BME280;49919;53.612;55.898;2022-08-25T00:16:52;100727.81;;;20.52;53.54
63773;BME280;49919;53.612;55.898;2022-08-25T00:18:24;100727.81;;;20.52;53.23
63773;BME280;49919;53.612;55.898;2022-08-25T00:19:55;100723.47;;;20.51;53.19
63773;BME280;49919;53.612;55.898;2022-08-25T00:21:27;100725.09;;;20.47;53.64
63773;BME280;49919;53.612;55.898;2022-08-25T00:22:58;100731.84;;;20.45;53.66
63773;BME280;49919;53.612;55.898;2022-08-25T00:24:29;100723.47;;;20.41;53.62
63773;BME280;49919;53.612;55.898;2022-08-25T00:26:00;100723.44;;;20.31;53.84
63773;BME280;49919;53.612;55.898;2022-08-25T00:27:32;100737.75;;;20.27;53.68
63773;BME280;49919;53.612;55.898;2022-08-25T00:29:03;100734.75;;;20.18;53.86
63773;BME280;49919;53.612;55.898;2022-08-25T00:30:33;100728.28;;;20.09;53.98
63773;BME280;49919;53.612;55.898;2022-08-25T00:32:06;100739.84;;;19.99;54.25
63773;BME280;49919;53.612;55.898;2022-08-25T00:33:37;100733.38;;;19.90;54.29
63773;BME280;49919;53.612;55.898;2022-08-25T00:35:08;100735.22;;;19.84;54.64
63773;BME280;49919;53.612;55.898;2022-08-25T00:36:39;100733.03;;;19.76;54.69
63773;BME280;49919;53.612;55.898;2022-08-25T00:38:10;100733.56;;;19.68;54.79
63773;BME280;49919;53.612;55.898;2022-08-25T00:39:42;100732.47;;;19.64;54.85
63773;BME280;49919;53.612;55.898;2022-08-25T00:41:18;100729.19;;;19.57;54.84
63773;BME280;49919;53.612;55.898;2022-08-25T00:42:50;100730.75;;;19.48;54.86
63773;BME280;49919;53.612;55.898;2022-08-25T00:44:21;100727.19;;;19.37;55.10
63773;BME280;49919;53.612;55.898;2022-08-25T00:45:53;100734.97;;;19.29;55.27
63773;BME280;49919;53.612;55.898;2022-08-25T00:47:24;100729.53;;;19.18;55.38
63773;BME280;49919;53.612;55.898;2022-08-25T00:48:59;100732.19;;;19.13;55.50
63773;BME280;49919;53.612;55.898;2022-08-25T00:50:32;100735.91;;;19.07;55.32
63773;BME280;49919;53.612;55.898;2022-08-25T00:52:11;100736.97;;;19.01;56.00
63773;BME280;49919;53.612;55.898;2022-08-25T00:53:43;100741.25;;;18.97;56.07
63773;BME280;49919;53.612;55.898;2022-08-25T00:55:21;100738.56;;;18.97;56.16
63773;BME280;49919;53.612;55.898;2022-08-25T00:56:53;100742.34;;;18.96;56.06
63773;BME280;49919;53.612;55.898;2022-08-25T00:58:26;100733.69;;;18.94;56.32
63773;BME280;49919;53.612;55.898;2022-08-25T00:59:58;100736.91;;;18.91;56.36
63773;BME280;49919;53.612;55.898;2022-08-25T01:01:29;100738.78;;;18.91;56.23
63773;BME280;49919;53.612;55.898;2022-08-25T01:03:01;100736.84;;;18.86;57.03
63773;BME280;49919;53.612;55.898;2022-08-25T01:04:32;100739.81;;;18.84;56.97
63773;BME280;49919;53.612;55.898;2022-08-25T01:06:04;100737.09;;;18.79;57.01
63773;BME280;49919;53.612;55.898;2022-08-25T01:07:35;100739.75;;;18.74;56.86
63773;BME280;49919;53.612;55.898;2022-08-25T01:09:07;100739.16;;;18.67;57.39
63773;BME280;49919;53.612;55.898;2022-08-25T01:10:43;100740.72;;;18.63;57.32
63773;BME280;49919;53.612;55.898;2022-08-25T01:12:14;100736.09;;;18.59;57.63
63773;BME280;49919;53.612;55.898;2022-08-25T01:13:52;100739.06;;;18.57;57.95
63773;BME280;49919;53.612;55.898;2022-08-25T01:15:23;100736.09;;;18.59;57.83
63773;BME280;49919;53.612;55.898;2022-08-25T01:16:54;100731.31;;;18.61;57.74
63773;BME280;49919;53.612;55.898;2022-08-25T01:18:28;100729.69;;;18.65;57.85
63773;BME280;49919;53.612;55.898;2022-08-25T01:19:59;100735.91;;;18.65;57.97
63773;BME280;49919;53.612;55.898;2022-08-25T01:21:36;100737.81;;;18.70;57.67
63773;BME280;49919;53.612;55.898;2022-08-25T01:23:07;100737.31;;;18.73;57.80
63773;BME280;49919;53.612;55.898;2022-08-25T01:24:50;100733.59;;;18.79;57.93
63773;BME280;49919;53.612;55.898;2022-08-25T01:26:31;100742.25;;;18.86;57.84
63773;BME280;49919;53.612;55.898;2022-08-25T01:28:03;100735.53;;;18.89;57.71
63773;BME280;49919;53.612;55.898;2022-08-25T01:29:36;100740.72;;;18.95;57.94
63773;BME280;49919;53.612;55.898;2022-08-25T01:31:07;100742.38;;;19.01;58.14
63773;BME280;49919;53.612;55.898;2022-08-25T01:32:38;100735.91;;;19.07;58.07
63773;BME280;49919;53.612;55.898;2022-08-25T01:34:11;100743.53;;;19.15;58.04
63773;BME280;49919;53.612;55.898;2022-08-25T01:35:43;100741.41;;;19.23;57.86
63773;BME280;49919;53.612;55.898;2022-08-25T01:37:15;100745.22;;;19.27;57.87
63773;BME280;49919;53.612;55.898;2022-08-25T01:38:46;100754.69;;;19.34;57.95
63773;BME280;49919;53.612;55.898;2022-08-25T01:40:17;100748.25;;;19.40;58.01
63773;BME280;49919;53.612;55.898;2022-08-25T01:43:37;100749.16;;;19.56;57.50
63773;BME280;49919;53.612;55.898;2022-08-25T01:45:08;100745.66;;;19.61;57.48
63773;BME280;49919;53.612;55.898;2022-08-25T01:46:40;100754.31;;;19.63;57.31
63773;BME280;49919;53.612;55.898;2022-08-25T01:48:11;100756.22;;;19.67;57.19
63773;BME280;49919;53.612;55.898;2022-08-25T01:49:43;100758.66;;;19.69;57.00
63773;BME280;49919;53.612;55.898;2022-08-25T01:51:15;100753.53;;;19.72;56.85
63773;BME280;49919;53.612;55.898;2022-08-25T01:52:55;100749.50;;;19.75;56.79
63773;BME280;49919;53.612;55.898;2022-08-25T01:54:28;100754.63;;;19.76;56.89
63773;BME280;49919;53.612;55.898;2022-08-25T01:56:06;100750.59;;;19.79;56.78
63773;BME280;49919;53.612;55.898;2022-08-25T01:57:37;100758.72;;;19.84;56.88
63773;BME280;49919;53.612;55.898;2022-08-25T01:59:14;100749.81;;;19.89;56.63
63773;BME280;49919;53.612;55.898;2022-08-25T02:00:47;100750.91;;;19.93;56.61
63773;BME280;49919;53.612;55.898;2022-08-25T02:02:19;100753.06;;;19.96;56.52
63773;BME280;49919;53.612;55.898;2022-08-25T02:03:53;100758.75;;;19.99;56.29
63773;BME280;49919;53.612;55.898;2022-08-25T02:05:24;100755.53;;;20.02;56.16
63773;BME280;49919;53.612;55.898;2022-08-25T02:06:55;100757.44;;;20.07;56.21
63773;BME280;49919;53.612;55.898;2022-08-25T02:08:25;100761.22;;;20.06;56.25
63773;BME280;49919;53.612;55.898;2022-08-25T02:09:56;100761.72;;;20.03;56.32
63773;BME280;49919;53.612;55.898;2022-08-25T02:11:27;100747.16;;;20.04;56.54
63773;BME280;49919;53.612;55.898;2022-08-25T02:12:58;100765.53;;;20.12;56.40
63773;BME280;49919;53.612;55.898;2022-08-25T02:14:29;100761.47;;;20.14;56.23
63773;BME280;49919;53.612;55.898;2022-08-25T02:16:01;100758.25;;;20.17;56.21
63773;BME280;49919;53.612;55.898;2022-08-25T02:17:33;100761.22;;;20.21;55.99
63773;BME280;49919;53.612;55.898;2022-08-25T02:19:07;100763.41;;;20.24;56.15
63773;BME280;49919;53.612;55.898;2022-08-25T02:20:38;100772.03;;;20.26;55.97
63773;BME280;49919;53.612;55.898;2022-08-25T02:22:09;100766.13;;;20.29;55.91
63773;BME280;49919;53.612;55.898;2022-08-25T02:23:41;100761.25;;;20.36;55.76
63773;BME280;49919;53.612;55.898;2022-08-25T02:25:11;100764.00;;;20.41;55.70
63773;BME280;49919;53.612;55.898;2022-08-25T02:26:42;100767.78;;;20.45;55.66
